createdAt,value
2024-03-06T00:01:47.619Z,34.10
2024-03-06T00:04:24.547Z,33.70
2024-03-06T00:07:10.507Z,33.60
2024-03-06T00:09:51.140Z,33.50
2024-03-06T00:12:35.026Z,33.30
2024-03-06T00:15:27.665Z,33.20
2024-03-06T00:18:12.032Z,33.10
2024-03-06T00:20:44.451Z,33.00
2024-03-06T00:23:21.745Z,33.20
2024-03-06T00:26:09.772Z,33.50
2024-03-06T00:28:59.843Z,34.00
2024-03-06T00:31:36.757Z,34.00
2024-03-06T00:34:19.980Z,33.60
2024-03-06T00:37:08.099Z,33.40
2024-03-06T00:39:52.989Z,33.20
2024-03-06T00:42:29.383Z,33.20
2024-03-06T00:45:20.570Z,33.10
2024-03-06T00:48:03.428Z,32.90
2024-03-06T00:50:36.834Z,32.90
2024-03-06T00:53:17.030Z,33.30
2024-03-06T00:56:06.494Z,33.80
2024-03-06T00:58:52.362Z,34.10
2024-03-06T01:01:37.646Z,34.30
2024-03-06T01:04:17.238Z,34.90
2024-03-06T01:06:49.696Z,34.60
2024-03-06T01:09:37.083Z,34.20
2024-03-06T01:12:17.387Z,34.00
2024-03-06T01:15:01.695Z,33.80
2024-03-06T01:17:48.838Z,33.60
2024-03-06T01:20:29.939Z,33.50
2024-03-06T01:23:08.913Z,33.30
2024-03-06T01:25:57.684Z,33.10
2024-03-06T01:28:43.312Z,33.60
2024-03-06T01:31:18.710Z,34.00
2024-03-06T01:34:07.095Z,34.20
2024-03-06T01:36:43.462Z,34.00
2024-03-06T01:39:24.126Z,33.70
2024-03-06T01:42:13.610Z,33.60
2024-03-06T01:44:54.164Z,33.30
2024-03-06T01:47:26.350Z,33.20
2024-03-06T01:50:15.075Z,33.10
2024-03-06T01:52:49.620Z,33.10
2024-03-06T01:55:23.684Z,33.20
2024-03-06T01:58:02.431Z,33.50
2024-03-06T02:00:53.789Z,34.00
2024-03-06T02:03:38.496Z,34.10
2024-03-06T02:06:31.395Z,33.60
2024-03-06T02:09:15.840Z,33.50
2024-03-06T02:11:58.564Z,33.30
2024-03-06T02:14:44.196Z,33.80
2024-03-06T02:17:30.055Z,33.10
2024-03-06T02:20:07.627Z,33.00
2024-03-06T02:22:45.951Z,32.90
2024-03-06T02:25:31.498Z,33.30
2024-03-06T02:28:04.830Z,33.90
2024-03-06T02:30:49.991Z,34.00
2024-03-06T02:33:36.194Z,33.60
2024-03-06T02:36:08.617Z,33.50
2024-03-06T02:38:42.986Z,33.30
2024-03-06T02:41:16.577Z,33.20
2024-03-06T02:44:03.656Z,33.10
2024-03-06T02:46:45.290Z,32.90
2024-03-06T02:49:37.976Z,32.80
2024-03-06T02:52:19.244Z,33.10
2024-03-06T02:55:00.711Z,33.40
2024-03-06T02:57:38.972Z,33.90
2024-03-06T03:00:26.469Z,34.20
2024-03-06T03:02:58.248Z,34.40
2024-03-06T03:05:32.424Z,34.60
2024-03-06T03:08:18.108Z,34.50
2024-03-06T03:10:52.796Z,34.20
2024-03-06T03:13:32.670Z,33.90
2024-03-06T03:16:24.474Z,33.70
2024-03-06T03:19:12.458Z,33.50
2024-03-06T03:21:49.134Z,33.40
2024-03-06T03:24:24.612Z,33.20
2024-03-06T03:27:13.280Z,33.20
2024-03-06T03:29:54.155Z,33.70
2024-03-06T03:32:36.274Z,34.10
2024-03-06T03:35:13.284Z,34.30
2024-03-06T03:37:50.444Z,33.80
2024-03-06T03:40:25.802Z,33.70
2024-03-06T03:43:18.977Z,33.60
2024-03-06T03:45:56.864Z,33.30
2024-03-06T03:48:38.790Z,33.20
2024-03-06T03:51:22.295Z,33.10
2024-03-06T03:54:04.709Z,33.00
2024-03-06T03:56:44.321Z,33.40
2024-03-06T03:59:42.845Z,33.80
2024-03-06T04:02:20.203Z,34.20
2024-03-06T04:05:08.934Z,33.80
2024-03-06T04:07:47.005Z,33.60
2024-03-06T04:10:19.994Z,33.40
2024-03-06T04:12:54.215Z,33.30
2024-03-06T04:15:47.368Z,33.20
2024-03-06T04:18:40.633Z,33.10
2024-03-06T04:21:14.896Z,33.00
2024-03-06T04:24:01.266Z,33.70
2024-03-06T04:26:39.768Z,33.40
2024-03-06T04:29:24.069Z,33.90
2024-03-06T04:32:11.557Z,34.00
2024-03-06T04:35:08.057Z,33.60
2024-03-06T04:37:46.716Z,33.40
2024-03-06T04:40:19.658Z,33.30
2024-03-06T04:42:57.291Z,33.20
2024-03-06T04:45:39.141Z,33.10
2024-03-06T04:48:31.164Z,32.90
2024-03-06T04:51:10.608Z,32.80
2024-03-06T04:53:44.503Z,33.30
2024-03-06T04:56:26.249Z,33.80
2024-03-06T04:59:15.149Z,34.10
2024-03-06T05:01:59.730Z,34.20
2024-03-06T06:00:19.888Z,33.70
2024-03-06T06:03:04.763Z,34.00
2024-03-06T06:05:38.117Z,33.70
2024-03-06T06:08:25.803Z,33.60
2024-03-06T06:11:04.400Z,33.40
2024-03-06T06:13:36.489Z,33.30
2024-03-06T06:16:12.694Z,33.00
2024-03-06T06:18:48.963Z,33.10
2024-03-06T06:21:28.008Z,32.90
2024-03-06T06:23:57.905Z,32.80
2024-03-06T06:26:28.038Z,33.40
2024-03-06T06:29:02.153Z,33.90
2024-03-06T06:31:32.363Z,33.90
2024-03-06T06:34:04.696Z,33.60
2024-03-06T06:36:45.288Z,33.50
2024-03-06T06:39:16.264Z,33.30
2024-03-06T06:41:49.735Z,33.10
2024-03-06T06:44:24.518Z,33.00
2024-03-06T06:47:04.057Z,32.90
2024-03-06T06:49:38.945Z,32.80
2024-03-06T06:52:11.092Z,33.00
2024-03-06T06:54:44.049Z,33.30
2024-03-06T06:57:17.519Z,33.90
2024-03-06T06:59:55.345Z,34.00
2024-03-06T07:02:34.479Z,34.30
2024-03-06T07:05:06.379Z,34.60
2024-03-06T07:07:39.845Z,34.60
2024-03-06T07:10:16.516Z,34.20
2024-03-06T07:12:57.134Z,33.90
2024-03-06T07:15:32.271Z,33.80
2024-03-06T07:18:02.985Z,33.60
2024-03-06T07:20:42.688Z,33.40
2024-03-06T07:23:16.336Z,33.30
2024-03-06T07:25:49.392Z,33.20
2024-03-06T07:28:25.156Z,33.40
2024-03-06T07:30:59.637Z,33.70
2024-03-06T07:33:30.039Z,34.20
2024-03-06T07:36:08.828Z,34.30
2024-03-06T07:38:39.211Z,33.80
2024-03-06T07:41:14.789Z,33.60
2024-03-06T07:43:55.580Z,33.50
2024-03-06T07:46:32.954Z,33.30
2024-03-06T07:49:13.262Z,33.20
2024-03-06T07:51:43.954Z,33.10
2024-03-06T07:54:17.207Z,32.90
2024-03-06T07:56:51.070Z,33.20
2024-03-06T07:59:25.646Z,33.60
2024-03-06T08:02:23.737Z,33.90
2024-03-06T08:05:04.647Z,34.10
2024-03-06T08:07:38.645Z,33.60
2024-03-06T08:10:11.292Z,33.40
2024-03-06T08:12:48.910Z,33.20
2024-03-06T08:15:19.492Z,33.20
2024-03-06T08:17:54.570Z,33.00
2024-03-06T08:20:32.632Z,32.90
2024-03-06T08:23:06.110Z,32.80
2024-03-06T08:25:38.172Z,33.10
2024-03-06T08:28:11.697Z,33.40
2024-03-06T08:30:45.757Z,33.70
2024-03-06T08:33:18.150Z,33.70
2024-03-06T08:36:12.028Z,33.40
2024-03-06T08:38:45.312Z,33.30
2024-03-06T08:41:21.549Z,33.10
2024-03-06T08:43:57.666Z,33.00
2024-03-06T08:46:31.743Z,32.90
2024-03-06T08:49:08.587Z,32.70
2024-03-06T08:51:51.160Z,32.70
2024-03-06T08:54:24.410Z,33.10
2024-03-06T08:57:00.858Z,33.40
2024-03-06T08:59:33.155Z,33.60
2024-03-06T09:02:23.786Z,34.00
2024-03-06T09:05:06.627Z,34.40
2024-03-06T09:07:51.588Z,34.70
2024-03-06T09:10:24.964Z,34.20
2024-03-06T09:12:59.527Z,34.00
2024-03-06T09:15:37.413Z,33.80
2024-03-06T09:18:14.917Z,33.60
2024-03-06T09:20:49.246Z,33.40
2024-03-06T09:23:21.408Z,33.20
2024-03-06T09:25:53.379Z,33.20
2024-03-06T09:28:21.615Z,33.20
2024-03-06T09:30:49.700Z,33.50
2024-03-06T09:33:17.871Z,33.80
2024-03-06T09:35:47.953Z,34.10
2024-03-06T09:38:18.825Z,33.80
2024-03-06T09:40:48.335Z,33.60
2024-03-06T09:43:16.513Z,33.40
2024-03-06T09:45:44.657Z,33.30
2024-03-06T09:48:12.753Z,33.30
2024-03-06T09:50:42.628Z,33.10
2024-03-06T09:53:12.307Z,33.00
2024-03-06T09:55:40.369Z,32.90
2024-03-06T09:58:09.770Z,33.20
2024-03-06T10:00:37.881Z,33.50
2024-03-06T10:03:09.356Z,33.60
2024-03-06T10:05:37.575Z,33.80
2024-03-06T10:08:06.672Z,33.50
2024-03-06T10:10:36.152Z,33.40
2024-03-06T10:13:04.275Z,33.30
2024-03-06T10:15:32.631Z,33.20
2024-03-06T10:18:14.467Z,33.00
2024-03-06T10:20:44.896Z,33.00
2024-03-06T10:23:13.171Z,32.80
2024-03-06T10:25:44.831Z,33.20
2024-03-06T10:28:13.338Z,33.40
2024-03-06T10:30:43.897Z,33.50
2024-03-06T10:33:12.648Z,33.90
2024-03-06T10:35:42.156Z,33.50
2024-03-06T10:38:12.335Z,33.40
2024-03-06T10:40:42.585Z,33.30
2024-03-06T10:43:10.992Z,33.10
2024-03-06T10:45:43.780Z,33.00
2024-03-06T10:48:13.378Z,32.80
2024-03-06T10:50:42.363Z,32.70
2024-03-06T10:53:11.479Z,32.90
2024-03-06T10:55:39.607Z,33.10
2024-03-06T10:58:10.692Z,33.50
2024-03-06T11:00:39.886Z,33.80
2024-03-06T11:03:08.940Z,34.00
2024-03-06T11:05:37.924Z,34.50
2024-03-06T11:08:06.196Z,34.70
2024-03-06T11:10:36.815Z,34.20
2024-03-06T11:13:26.965Z,34.00
2024-03-06T11:16:13.385Z,33.80
2024-03-06T11:19:10.923Z,33.60
2024-03-06T11:21:53.946Z,33.40
2024-03-06T11:24:26.685Z,33.20
2024-03-06T11:27:11.417Z,33.20
2024-03-06T11:30:18.731Z,33.40
2024-03-06T11:33:24.045Z,33.50
2024-03-06T11:36:24.867Z,33.80
2024-03-06T11:39:03.495Z,33.80
2024-03-06T11:41:57.126Z,33.60
2024-03-06T11:44:34.095Z,33.40
2024-03-06T11:47:09.579Z,33.30
2024-03-06T11:49:47.556Z,33.10
2024-03-06T11:52:27.546Z,33.10
2024-03-06T11:55:05.910Z,33.00
2024-03-06T11:57:43.019Z,33.10
2024-03-06T12:00:24.237Z,33.30
2024-03-06T12:05:56.644Z,33.90
2024-03-06T12:08:33.268Z,33.60
2024-03-06T12:11:05.849Z,33.40
2024-03-06T12:13:37.818Z,33.20
2024-03-06T12:19:13.506Z,32.90
2024-03-06T12:22:05.246Z,32.80
2024-03-06T12:24:37.887Z,32.80
2024-03-06T12:27:14.472Z,33.20
2024-03-06T12:29:52.175Z,33.40
2024-03-06T12:32:31.321Z,33.60
2024-03-06T12:35:10.814Z,33.50
2024-03-06T12:38:08.064Z,33.90
2024-03-06T12:40:45.347Z,33.20
2024-03-06T12:43:40.836Z,33.10
2024-03-06T12:46:29.830Z,32.90
2024-03-06T12:49:20.632Z,32.80
2024-03-06T12:51:54.439Z,32.70
2024-03-06T12:54:30.175Z,32.90
2024-03-06T12:57:08.765Z,33.10
2024-03-06T12:59:46.299Z,33.40
2024-03-06T13:02:21.063Z,33.70
2024-03-06T13:04:53.307Z,34.20
2024-03-06T13:07:30.109Z,34.50
2024-03-06T13:10:31.281Z,34.40
2024-03-06T13:13:10.129Z,33.90
2024-03-06T13:15:50.130Z,33.70
2024-03-06T13:18:29.062Z,33.50
2024-03-06T13:21:07.766Z,33.30
2024-03-06T13:23:47.363Z,33.20
2024-03-06T13:26:22.054Z,33.10
2024-03-06T13:29:05.690Z,33.00
2024-03-06T13:31:43.100Z,33.30
2024-03-06T13:34:33.254Z,33.50
2024-03-06T13:40:05.847Z,33.50
2024-03-06T13:42:42.978Z,33.50
2024-03-06T13:45:18.401Z,33.30
2024-03-06T13:48:01.255Z,33.20
2024-03-06T13:50:43.193Z,33.00
2024-03-06T13:53:19.983Z,32.90
2024-03-06T13:56:02.987Z,32.80
2024-03-06T13:58:41.142Z,33.00
2024-03-06T14:01:20.681Z,33.20
2024-03-06T14:04:09.248Z,33.30
2024-03-06T14:06:58.657Z,33.70
2024-03-06T14:09:33.690Z,33.40
2024-03-06T14:12:07.900Z,33.20
2024-03-06T14:14:38.260Z,33.00
2024-03-06T14:17:26.867Z,32.90
2024-03-06T14:19:57.064Z,32.80
2024-03-06T14:22:33.183Z,32.80
2024-03-06T14:25:21.636Z,32.70
2024-03-06T14:27:59.175Z,33.10
2024-03-06T14:30:40.501Z,33.20
2024-03-06T14:33:16.097Z,33.40
2024-03-06T14:36:06.701Z,33.40
2024-03-06T14:38:39.503Z,33.20
2024-03-06T14:41:11.450Z,33.10
2024-03-06T14:43:54.677Z,33.10
2024-03-06T14:46:30.077Z,32.90
2024-03-06T14:49:22.980Z,32.80
2024-03-06T14:52:00.796Z,32.70
2024-03-06T14:54:47.307Z,32.80
2024-03-06T14:57:30.662Z,33.00
2024-03-06T15:00:19.631Z,33.30
2024-03-06T15:03:09.005Z,33.40
2024-03-06T15:05:48.587Z,34.10
2024-03-06T15:08:20.548Z,34.40
2024-03-06T15:10:57.652Z,34.30
2024-03-06T15:13:30.274Z,33.90
2024-03-06T15:19:10.041Z,33.60
2024-03-06T15:21:45.477Z,33.40
2024-03-06T15:24:32.143Z,33.20
2024-03-06T15:27:04.112Z,33.10
2024-03-06T15:29:43.072Z,33.00
2024-03-06T15:32:23.256Z,33.40
2024-03-06T15:34:56.841Z,33.60
2024-03-06T15:37:30.282Z,33.90
2024-03-06T15:40:00.526Z,33.70
2024-03-06T15:42:36.569Z,33.60
2024-03-06T15:45:31.566Z,33.40
2024-03-06T15:48:19.225Z,33.20
2024-03-06T15:50:52.373Z,33.10
2024-03-06T15:53:33.572Z,33.00
2024-03-06T15:56:05.003Z,32.90
2024-03-06T15:58:36.209Z,33.00
2024-03-06T16:01:07.653Z,33.20
2024-03-06T16:04:01.750Z,33.40
2024-03-06T16:06:51.480Z,33.90
2024-03-06T16:09:25.071Z,33.60
2024-03-06T16:12:04.945Z,33.50
2024-03-06T16:14:35.019Z,33.30
2024-03-06T16:17:11.157Z,33.20
2024-03-06T16:19:47.115Z,33.10
2024-03-06T16:22:29.067Z,32.90
2024-03-06T16:25:06.336Z,32.90
2024-03-06T16:27:48.356Z,33.20
2024-03-06T16:30:28.873Z,33.30
2024-03-06T16:33:18.023Z,33.50
2024-03-06T16:36:01.177Z,33.80
2024-03-06T16:38:35.090Z,33.50
2024-03-06T16:41:06.086Z,33.30
2024-03-06T16:43:42.944Z,33.20
2024-03-06T16:46:22.239Z,33.20
2024-03-06T16:49:06.188Z,33.00
2024-03-06T16:51:49.864Z,32.90
2024-03-06T16:54:31.551Z,32.80
2024-03-06T16:57:15.162Z,33.20
2024-03-06T16:59:51.639Z,33.40
2024-03-06T17:02:40.157Z,33.70
2024-03-06T17:05:15.379Z,34.00
2024-03-06T17:07:52.730Z,34.40
2024-03-06T17:10:37.658Z,35.30
2024-03-06T17:13:19.495Z,34.20
2024-03-06T17:16:16.823Z,34.00
2024-03-06T17:19:06.143Z,34.40
2024-03-06T17:21:48.136Z,33.60
2024-03-06T17:24:26.602Z,33.40
2024-03-06T17:27:05.528Z,33.30
2024-03-06T17:30:04.480Z,33.20
2024-03-06T17:32:49.430Z,33.40
2024-03-06T17:35:29.266Z,33.80
2024-03-06T17:38:06.665Z,34.20
2024-03-06T17:40:58.973Z,33.80
2024-03-06T17:43:41.696Z,33.70
2024-03-06T17:46:20.318Z,33.50
2024-03-06T17:48:59.981Z,33.40
2024-03-06T17:51:48.245Z,33.30
2024-03-06T17:54:35.523Z,33.20
2024-03-06T17:57:21.827Z,33.10
2024-03-06T18:00:03.722Z,33.20
2024-03-06T18:02:41.073Z,33.50
2024-03-06T18:05:29.984Z,33.90
2024-03-06T18:08:07.696Z,34.10
2024-03-06T18:10:42.517Z,33.70
2024-03-06T18:13:19.645Z,33.50
2024-03-06T18:16:09.983Z,33.40
2024-03-06T18:19:01.049Z,33.30
2024-03-06T18:21:35.868Z,33.10
2024-03-06T18:24:15.511Z,33.00
2024-03-06T18:26:55.278Z,33.00
2024-03-06T18:29:38.650Z,33.40
2024-03-06T18:32:28.588Z,33.80
2024-03-06T18:35:04.612Z,34.00
2024-03-06T18:37:40.349Z,33.60
2024-03-06T18:40:16.641Z,33.60
2024-03-06T18:42:55.265Z,33.40
2024-03-06T18:45:48.831Z,33.40
2024-03-06T18:48:19.279Z,33.20
2024-03-06T18:50:52.499Z,33.00
2024-03-06T18:53:28.137Z,33.00
2024-03-06T18:55:58.323Z,33.00
2024-03-06T18:58:30.912Z,33.40
2024-03-06T19:01:14.079Z,33.80
2024-03-06T19:03:46.813Z,34.10
2024-03-06T19:06:37.257Z,34.40
2024-03-06T19:09:12.147Z,34.50
2024-03-06T19:12:02.263Z,34.70
2024-03-06T19:14:43.435Z,34.30
2024-03-06T19:17:22.396Z,34.00
2024-03-06T19:19:57.423Z,33.80
2024-03-06T19:22:38.240Z,33.70
2024-03-06T19:25:19.807Z,33.50
2024-03-06T19:28:00.552Z,33.40
2024-03-06T19:30:36.147Z,33.30
2024-03-06T19:33:16.334Z,33.60
2024-03-06T19:35:45.953Z,34.00
2024-03-06T19:38:20.001Z,34.30
2024-03-06T19:40:54.042Z,34.00
2024-03-06T19:43:37.348Z,33.90
2024-03-06T19:46:09.663Z,33.70
2024-03-06T19:48:52.968Z,33.60
2024-03-06T19:51:30.412Z,34.00
2024-03-06T19:54:05.868Z,33.30
2024-03-06T19:56:53.745Z,33.10
2024-03-06T19:59:25.411Z,33.00
2024-03-06T20:02:00.803Z,33.40
2024-03-06T20:04:39.361Z,33.80
2024-03-06T20:07:26.165Z,34.10
2024-03-06T20:10:10.226Z,33.80
2024-03-06T20:13:03.508Z,33.60
2024-03-06T20:15:44.864Z,33.50
2024-03-06T20:18:24.659Z,33.40
2024-03-06T20:21:10.456Z,33.20
2024-03-06T20:24:18.877Z,33.10
2024-03-06T20:27:02.582Z,33.00
2024-03-06T20:29:37.812Z,33.30
2024-03-06T20:32:10.427Z,33.70
2024-03-06T20:34:47.539Z,34.40
2024-03-06T20:37:28.811Z,34.00
2024-03-06T20:39:58.711Z,33.60
2024-03-06T20:42:34.386Z,33.50
2024-03-06T20:45:13.498Z,33.30
2024-03-06T20:48:02.017Z,33.20
2024-03-06T20:50:39.029Z,33.10
2024-03-06T20:53:31.268Z,33.00
2024-03-06T20:56:15.849Z,32.90
2024-03-06T21:01:59.440Z,33.80
2024-03-06T21:04:49.062Z,34.10
2024-03-06T21:07:38.382Z,34.40
2024-03-06T21:10:30.639Z,34.60
2024-03-06T21:13:30.544Z,34.50
2024-03-06T21:16:16.620Z,34.20
2024-03-06T21:21:51.643Z,33.70
2024-03-06T21:24:31.286Z,33.60
2024-03-06T21:27:22.604Z,33.50
2024-03-06T21:30:13.159Z,33.20
2024-03-06T21:33:02.969Z,33.40
2024-03-06T21:35:36.088Z,33.70
2024-03-06T21:38:23.257Z,34.20
2024-03-06T21:40:58.157Z,34.20
2024-03-06T21:43:35.459Z,33.90
2024-03-06T21:46:26.626Z,33.60
2024-03-06T21:49:01.349Z,33.50
2024-03-06T21:51:50.214Z,33.50
2024-03-06T21:54:25.819Z,33.20
2024-03-06T21:57:23.737Z,33.20
2024-03-06T22:03:08.638Z,33.50
2024-03-06T22:05:52.044Z,34.00
2024-03-06T22:08:37.313Z,34.10
2024-03-06T22:11:16.104Z,33.70
2024-03-06T22:13:53.182Z,33.60
2024-03-06T22:16:53.114Z,33.40
2024-03-06T22:19:36.641Z,33.30
2024-03-06T22:22:17.685Z,33.10
2024-03-06T22:27:26.569Z,33.00
2024-03-06T22:30:04.933Z,33.30
2024-03-06T22:32:55.685Z,33.70
2024-03-06T22:35:46.716Z,34.00
2024-03-06T22:38:19.919Z,33.80
2024-03-06T22:43:47.997Z,33.50
2024-03-06T22:46:44.357Z,33.30
2024-03-06T22:49:38.645Z,33.20
2024-03-06T22:52:18.035Z,33.10
2024-03-06T22:54:57.781Z,32.90
2024-03-06T22:57:44.645Z,33.10
2024-03-06T23:00:32.333Z,33.60
2024-03-06T23:03:28.920Z,33.90
2024-03-06T23:06:08.479Z,34.20
2024-03-06T23:08:49.122Z,34.40
2024-03-06T23:11:43.468Z,34.60
2024-03-06T23:14:25.533Z,34.40
2024-03-06T23:17:11.852Z,34.10
2024-03-06T23:19:48.906Z,34.00
2024-03-06T23:22:29.360Z,33.70
2024-03-06T23:25:09.052Z,33.50
2024-03-06T23:27:49.845Z,33.40
2024-03-06T23:30:26.191Z,33.30
2024-03-06T23:33:15.207Z,33.40
2024-03-06T23:35:58.206Z,33.90
2024-03-06T23:38:42.469Z,34.20
2024-03-06T23:41:18.117Z,34.10
2024-03-06T23:43:53.740Z,33.90
2024-03-06T23:46:26.120Z,33.70
2024-03-06T23:49:13.645Z,33.60
2024-03-06T23:51:55.333Z,33.40
2024-03-06T23:54:40.804Z,33.30
2024-03-06T23:57:25.105Z,33.10
